Port Huron, MI

07:32 EDT 2. Září 2014 (GMT -0400)
Port Huron Township | Change Station
CLOSE
Current Station
Osobní povětrnostní stanice
Location: Port Huron, MI
Nadmořská výška: 594 ft
Poblíž povětrnostní stanice

Výška 594 ft 43.00 °N, 82.48 °W | Updated 5 minutes ago

Clear
Jasno
68.0 °F
Pocit jako 68.0 °F
S
0.0
Vítr proměnlivý Vítr od JZ
Gusts 1.0 mil/h

Dnes
Vysoké -- | Nízké -- °F
--% Možnost srážek
Včera
Vysoké -- | Nízké -- °F
Precip. -- inčů
6:55 AM 8:02 PM
Dorůstající srpek, 50% visible
Tlak 29.85 inčů
Viditelnost 4.0 mílí
Zataženo Jasno
Rosný bod 68 °F
Vlhkost 99%
Dešťové srážky 0.00 inčů
Sněhová pokrývka Není k dispozici
UV záření 0 ze 12
Pyl 7.60 ze 12
Ozón Dobrý
PM2.5 Dobrý
Flu Activity Není k dispozici
METAR KPHN 021116Z AUTO 20003KT 4SM BR CLR 20/20 A2985 RMK AO2

More Conditions Fewer Conditions

Tlak 29.85 inčů
Viditelnost 4.0 mílí
Zataženo Jasno
Rosný bod 68 °F
Vlhkost 99%
Dešťové srážky 0.00 inčů
Sněhová pokrývka Není k dispozici
UV záření 0 ze 12
Pyl 7.60 ze 12
Ozón Dobrý
PM2.5 Dobrý
Flu Activity Není k dispozici
METAR KPHN 021116Z AUTO 20003KT 4SM BR CLR 20/20 A2985 RMK AO2

More Conditions Fewer Conditions

10-Day Weather Forecast

Almanac

Astronomie

Sep. 02, 2014 Východ Západ
Skutečný čas 06:55 EDT 20:02 EDT
Občanský soumrak 06:26 EDT 20:31 EDT
Námořní soumrak 05:51 EDT 21:06 EDT
Astronomický soumrak 05:14 EDT 21:43 EDT
Měsíc 14:49 EDT Měsíc nezapadá
Délka denního světla 14h 05m
Délka dne
13h 07m
Tomorrow will be 2m 49s shorter.
Dorůstající srpek, 50% of the Moon is Illuminated
Dnes
Dorůstající srpek
Zář 8
Úplněk
Zář 15
Ubývající
Zář 24
Nov
Říj 1
První čtvrť

Dnešní extrémy

State Highs State Lows

Community

WunderPhotos

Upload Photos

1,749,621 snímků staženo!

WunderBlogs® & News

By Dr. Jeff Masters
Director of Meteorology, Weather Underground
By Kari Strenfel
Meteorologist, Weather Underground
By Christopher C. Burt
Weather Historian, Weather Underground
September 2, 2014
September 2, 2014
September 2, 2014

Nearby

Kvalita ovzduší

  Kvalita ovzduší Index kvality ovzduší Polutant
Včera Dobrý
PM10
Včera Dobrý
OZONE
Nyní Dobrý
PM2.5
Nyní Dobrý
OZONE
Úterý Dobrý
OZONE
Úterý Dobrý
PM2.5

Výška sněhu

Station Hloubka Nadmořská výška
Žádný nový sníh nebyl hlášen

Seizmická činnost

Město Distance Mag. Čas & datum
Žádné zemětřesení v okolí nebylo hlášeno
Minimální zobrazený rozsah je 2.5.

Pobřežní teplota vody

Lokalita Teplota
Harbor Beach, MI 70.0 °F

Poblíž povětrnostní stanice